FR-0241 weather

Remontées Mécaniques Heliport
Le Praz De Lys, Rhône Alpes, France

Public forecast

Using degrees Celsius for public forecast. Weather courtesy of forecast.io.

METAR (pilot weather report)

Closest report is Geneva Cointrin International Airport, 20.4 nm (37.7 km) WNW. Retrieved 2019/09/17 09:20 UTC (0 seconds ago):

LSGG 170920Z VRB01KT CAVOK 24/14 Q1019 NOSIG

TAF (pilot weather forecast)

Closest forecast is Geneva Cointrin International Airport, 20.4 nm (37.7 km) WNW. Retrieved 2019/09/17 09:37 UTC (0 seconds ago):

TAF LSGG 170825Z 1709/1815 VRB03KT CAVOK TX26/1715Z TN14/1805Z TX22/1815Z BECMG 1711/1713 05010KT 9999 FEW050 BECMG 1717/1719 CAVOK BECMG 1811/1813 9999 FEW040